sensor_id;sensor_type;location;lat;lon;timestamp;temperature;humidity
52849;DHT22;38714;53.180;5.812;2023-04-03T00:00:41;3.70;99.90
52849;DHT22;38714;53.180;5.812;2023-04-03T00:03:07;3.60;99.90
52849;DHT22;38714;53.180;5.812;2023-04-03T00:05:33;3.60;99.90
52849;DHT22;38714;53.180;5.812;2023-04-03T00:07:58;3.60;99.90
52849;DHT22;38714;53.180;5.812;2023-04-03T00:10:24;3.50;99.90
52849;DHT22;38714;53.180;5.812;2023-04-03T00:12:49;3.50;99.90
52849;DHT22;38714;53.180;5.812;2023-04-03T00:15:15;3.50;99.90
52849;DHT22;38714;53.180;5.812;2023-04-03T00:17:41;3.50;99.90
52849;DHT22;38714;53.180;5.812;2023-04-03T00:20:07;3.50;99.90
52849;DHT22;38714;53.180;5.812;2023-04-03T00:22:33;3.50;99.90
52849;DHT22;38714;53.180;5.812;2023-04-03T00:24:59;3.50;99.90
52849;DHT22;38714;53.180;5.812;2023-04-03T00:27:24;3.50;99.90
52849;DHT22;38714;53.180;5.812;2023-04-03T00:29:50;3.50;99.90
52849;DHT22;38714;53.180;5.812;2023-04-03T00:32:15;3.50;99.90
52849;DHT22;38714;53.180;5.812;2023-04-03T00:34:41;3.40;99.90
52849;DHT22;38714;53.180;5.812;2023-04-03T00:37:07;3.40;99.90
52849;DHT22;38714;53.180;5.812;2023-04-03T00:39:32;3.40;99.90
52849;DHT22;38714;53.180;5.812;2023-04-03T00:41:58;3.40;99.90
52849;DHT22;38714;53.180;5.812;2023-04-03T00:46:58;3.30;99.90
52849;DHT22;38714;53.180;5.812;2023-04-03T00:49:24;3.40;99.90
52849;DHT22;38714;53.180;5.812;2023-04-03T00:51:50;3.30;99.90
52849;DHT22;38714;53.180;5.812;2023-04-03T00:54:16;3.30;99.90
52849;DHT22;38714;53.180;5.812;2023-04-03T00:56:43;3.30;99.90
52849;DHT22;38714;53.180;5.812;2023-04-03T00:59:13;3.30;99.90
52849;DHT22;38714;53.180;5.812;2023-04-03T01:01:40;3.30;99.90
52849;DHT22;38714;53.180;5.812;2023-04-03T01:06:52;3.20;99.90
52849;DHT22;38714;53.180;5.812;2023-04-03T01:09:17;3.20;99.90
52849;DHT22;38714;53.180;5.812;2023-04-03T01:11:43;3.20;99.90
52849;DHT22;38714;53.180;5.812;2023-04-03T01:14:09;3.20;99.90
52849;DHT22;38714;53.180;5.812;2023-04-03T01:16:34;3.20;99.90
52849;DHT22;38714;53.180;5.812;2023-04-03T01:19:01;3.10;99.90
52849;DHT22;38714;53.180;5.812;2023-04-03T01:21:43;3.10;99.90
52849;DHT22;38714;53.180;5.812;2023-04-03T01:26:45;3.10;99.90
52849;DHT22;38714;53.180;5.812;2023-04-03T01:29:10;3.10;99.90
52849;DHT22;38714;53.180;5.812;2023-04-03T01:31:54;3.00;99.90
52849;DHT22;38714;53.180;5.812;2023-04-03T01:34:21;3.10;99.90
52849;DHT22;38714;53.180;5.812;2023-04-03T01:36:47;3.00;99.90
52849;DHT22;38714;53.180;5.812;2023-04-03T01:39:12;3.00;99.90
52849;DHT22;38714;53.180;5.812;2023-04-03T01:41:38;3.00;99.90
52849;DHT22;38714;53.180;5.812;2023-04-03T01:44:04;2.90;99.90
52849;DHT22;38714;53.180;5.812;2023-04-03T01:46:29;2.90;99.90
52849;DHT22;38714;53.180;5.812;2023-04-03T01:48:55;2.90;99.90
52849;DHT22;38714;53.180;5.812;2023-04-03T01:51:21;2.90;99.90
52849;DHT22;38714;53.180;5.812;2023-04-03T01:53:46;2.90;99.90
52849;DHT22;38714;53.180;5.812;2023-04-03T01:56:12;2.80;99.90
52849;DHT22;38714;53.180;5.812;2023-04-03T01:58:38;2.80;99.90
52849;DHT22;38714;53.180;5.812;2023-04-03T02:01:03;2.80;99.90
52849;DHT22;38714;53.180;5.812;2023-04-03T02:03:29;2.80;99.90
52849;DHT22;38714;53.180;5.812;2023-04-03T02:05:55;2.80;99.90
52849;DHT22;38714;53.180;5.812;2023-04-03T02:08:20;2.70;99.90
52849;DHT22;38714;53.180;5.812;2023-04-03T02:10:48;2.70;99.90
52849;DHT22;38714;53.180;5.812;2023-04-03T02:13:14;2.70;99.90
52849;DHT22;38714;53.180;5.812;2023-04-03T02:15:40;2.70;99.90
52849;DHT22;38714;53.180;5.812;2023-04-03T02:18:06;2.70;99.90
52849;DHT22;38714;53.180;5.812;2023-04-03T02:20:32;2.70;99.90
52849;DHT22;38714;53.180;5.812;2023-04-03T02:22:58;2.60;99.90
52849;DHT22;38714;53.180;5.812;2023-04-03T02:25:24;2.60;99.90
52849;DHT22;38714;53.180;5.812;2023-04-03T02:27:50;2.60;99.90
52849;DHT22;38714;53.180;5.812;2023-04-03T02:30:15;2.60;99.90
52849;DHT22;38714;53.180;5.812;2023-04-03T02:32:42;2.60;99.90
52849;DHT22;38714;53.180;5.812;2023-04-03T02:35:08;2.60;99.90
52849;DHT22;38714;53.180;5.812;2023-04-03T02:37:34;2.60;99.90
52849;DHT22;38714;53.180;5.812;2023-04-03T02:40:00;2.50;99.90
52849;DHT22;38714;53.180;5.812;2023-04-03T02:42:25;2.50;99.90
52849;DHT22;38714;53.180;5.812;2023-04-03T02:44:51;2.50;99.90
52849;DHT22;38714;53.180;5.812;2023-04-03T02:47:17;2.50;99.90
52849;DHT22;38714;53.180;5.812;2023-04-03T02:49:42;2.50;99.90
52849;DHT22;38714;53.180;5.812;2023-04-03T02:52:12;2.50;99.90
52849;DHT22;38714;53.180;5.812;2023-04-03T02:54:38;2.50;99.90
52849;DHT22;38714;53.180;5.812;2023-04-03T02:57:04;2.50;99.90
52849;DHT22;38714;53.180;5.812;2023-04-03T02:59:29;2.40;99.90
52849;DHT22;38714;53.180;5.812;2023-04-03T03:01:55;2.40;99.90
52849;DHT22;38714;53.180;5.812;2023-04-03T03:04:21;2.40;99.90
52849;DHT22;38714;53.180;5.812;2023-04-03T03:06:47;2.40;99.90
52849;DHT22;38714;53.180;5.812;2023-04-03T03:09:13;2.30;99.90
52849;DHT22;38714;53.180;5.812;2023-04-03T03:11:39;2.30;99.90
52849;DHT22;38714;53.180;5.812;2023-04-03T03:14:05;2.30;99.90
52849;DHT22;38714;53.180;5.812;2023-04-03T03:16:30;2.30;99.90
52849;DHT22;38714;53.180;5.812;2023-04-03T03:18:56;2.30;99.90
52849;DHT22;38714;53.180;5.812;2023-04-03T03:21:21;2.30;99.90
52849;DHT22;38714;53.180;5.812;2023-04-03T03:23:47;2.30;99.90
52849;DHT22;38714;53.180;5.812;2023-04-03T03:26:13;2.20;99.90
52849;DHT22;38714;53.180;5.812;2023-04-03T03:28:39;2.20;99.90
52849;DHT22;38714;53.180;5.812;2023-04-03T03:31:06;2.20;99.90
52849;DHT22;38714;53.180;5.812;2023-04-03T03:33:33;2.20;99.90
52849;DHT22;38714;53.180;5.812;2023-04-03T03:35:59;2.10;99.90
52849;DHT22;38714;53.180;5.812;2023-04-03T03:38:25;2.10;99.90
52849;DHT22;38714;53.180;5.812;2023-04-03T03:40:51;2.10;99.90
52849;DHT22;38714;53.180;5.812;2023-04-03T03:43:17;2.10;99.90
52849;DHT22;38714;53.180;5.812;2023-04-03T03:45:43;2.10;99.90
52849;DHT22;38714;53.180;5.812;2023-04-03T03:48:09;2.10;99.90
52849;DHT22;38714;53.180;5.812;2023-04-03T03:50:35;2.00;99.90
52849;DHT22;38714;53.180;5.812;2023-04-03T03:53:00;2.00;99.90
52849;DHT22;38714;53.180;5.812;2023-04-03T03:55:26;2.00;99.90
52849;DHT22;38714;53.180;5.812;2023-04-03T03:57:52;2.00;99.90
52849;DHT22;38714;53.180;5.812;2023-04-03T04:00:17;2.00;99.90
52849;DHT22;38714;53.180;5.812;2023-04-03T04:02:43;2.00;99.90
52849;DHT22;38714;53.180;5.812;2023-04-03T04:05:09;2.00;99.90
52849;DHT22;38714;53.180;5.812;2023-04-03T04:07:35;2.00;99.90
52849;DHT22;38714;53.180;5.812;2023-04-03T04:10:00;1.90;99.90
52849;DHT22;38714;53.180;5.812;2023-04-03T04:12:26;1.90;99.90
52849;DHT22;38714;53.180;5.812;2023-04-03T04:14:52;1.90;99.90
52849;DHT22;38714;53.180;5.812;2023-04-03T04:17:17;1.90;99.90
52849;DHT22;38714;53.180;5.812;2023-04-03T04:19:43;1.90;99.90
52849;DHT22;38714;53.180;5.812;2023-04-03T04:22:08;1.80;99.90
52849;DHT22;38714;53.180;5.812;2023-04-03T04:24:34;1.80;99.90
52849;DHT22;38714;53.180;5.812;2023-04-03T04:27:00;1.80;99.90
52849;DHT22;38714;53.180;5.812;2023-04-03T04:29:25;1.80;99.90
52849;DHT22;38714;53.180;5.812;2023-04-03T04:31:51;1.80;99.90
52849;DHT22;38714;53.180;5.812;2023-04-03T04:34:16;1.80;99.90
52849;DHT22;38714;53.180;5.812;2023-04-03T04:36:42;1.70;99.90
52849;DHT22;38714;53.180;5.812;2023-04-03T04:39:07;1.70;99.90
52849;DHT22;38714;53.180;5.812;2023-04-03T04:41:34;1.70;99.90
52849;DHT22;38714;53.180;5.812;2023-04-03T04:44:00;1.60;99.90
52849;DHT22;38714;53.180;5.812;2023-04-03T04:46:25;1.60;99.90
52849;DHT22;38714;53.180;5.812;2023-04-03T04:48:51;1.60;99.90
52849;DHT22;38714;53.180;5.812;2023-04-03T04:51:17;1.50;99.90
52849;DHT22;38714;53.180;5.812;2023-04-03T04:53:42;1.50;99.90
52849;DHT22;38714;53.180;5.812;2023-04-03T04:56:08;1.50;99.90
52849;DHT22;38714;53.180;5.812;2023-04-03T04:58:34;1.50;99.90
52849;DHT22;38714;53.180;5.812;2023-04-03T05:01:05;1.50;99.90
52849;DHT22;38714;53.180;5.812;2023-04-03T05:03:31;1.50;99.90
52849;DHT22;38714;53.180;5.812;2023-04-03T05:05:56;1.60;99.90
52849;DHT22;38714;53.180;5.812;2023-04-03T05:08:22;1.50;99.90
52849;DHT22;38714;53.180;5.812;2023-04-03T05:10:48;1.50;99.90
52849;DHT22;38714;53.180;5.812;2023-04-03T05:13:14;1.50;99.90
52849;DHT22;38714;53.180;5.812;2023-04-03T05:15:39;1.50;99.90
52849;DHT22;38714;53.180;5.812;2023-04-03T05:18:05;1.50;99.90
52849;DHT22;38714;53.180;5.812;2023-04-03T05:20:32;1.50;99.90
52849;DHT22;38714;53.180;5.812;2023-04-03T05:22:57;1.50;99.90
52849;DHT22;38714;53.180;5.812;2023-04-03T05:25:23;1.50;99.90
52849;DHT22;38714;53.180;5.812;2023-04-03T05:27:49;1.50;99.90
52849;DHT22;38714;53.180;5.812;2023-04-03T05:30:15;1.40;99.90
52849;DHT22;38714;53.180;5.812;2023-04-03T05:32:41;1.40;99.90
52849;DHT22;38714;53.180;5.812;2023-04-03T05:35:07;1.40;99.90
52849;DHT22;38714;53.180;5.812;2023-04-03T05:37:34;1.40;99.90
52849;DHT22;38714;53.180;5.812;2023-04-03T05:40:00;1.40;99.90
52849;DHT22;38714;53.180;5.812;2023-04-03T05:42:25;1.40;99.90
52849;DHT22;38714;53.180;5.812;2023-04-03T05:44:51;1.40;99.90
52849;DHT22;38714;53.180;5.812;2023-04-03T05:47:18;1.40;99.90
52849;DHT22;38714;53.180;5.812;2023-04-03T05:49:43;1.40;99.90
52849;DHT22;38714;53.180;5.812;2023-04-03T05:52:29;1.50;99.90
52849;DHT22;38714;53.180;5.812;2023-04-03T05:54:55;1.50;99.90
52849;DHT22;38714;53.180;5.812;2023-04-03T05:57:21;1.40;99.90
52849;DHT22;38714;53.180;5.812;2023-04-03T05:59:47;1.50;99.90
52849;DHT22;38714;53.180;5.812;2023-04-03T06:02:14;1.50;99.90
52849;DHT22;38714;53.180;5.812;2023-04-03T06:04:40;1.50;99.90
52849;DHT22;38714;53.180;5.812;2023-04-03T06:07:06;1.50;99.90
52849;DHT22;38714;53.180;5.812;2023-04-03T06:09:33;1.50;99.90
52849;DHT22;38714;53.180;5.812;2023-04-03T06:11:59;1.50;99.90
52849;DHT22;38714;53.180;5.812;2023-04-03T06:14:25;1.50;99.90
52849;DHT22;38714;53.180;5.812;2023-04-03T06:16:51;1.60;99.90
52849;DHT22;38714;53.180;5.812;2023-04-03T06:19:17;1.60;99.90
52849;DHT22;38714;53.180;5.812;2023-04-03T06:21:43;1.60;99.90
52849;DHT22;38714;53.180;5.812;2023-04-03T06:24:10;1.60;99.90
52849;DHT22;38714;53.180;5.812;2023-04-03T06:26:37;1.60;99.90
52849;DHT22;38714;53.180;5.812;2023-04-03T06:29:03;1.70;99.90
52849;DHT22;38714;53.180;5.812;2023-04-03T06:31:28;1.70;99.90
52849;DHT22;38714;53.180;5.812;2023-04-03T06:33:54;1.70;99.90
52849;DHT22;38714;53.180;5.812;2023-04-03T06:36:21;1.70;99.90
52849;DHT22;38714;53.180;5.812;2023-04-03T06:38:47;1.80;99.90
52849;DHT22;38714;53.180;5.812;2023-04-03T06:41:13;1.80;99.90
52849;DHT22;38714;53.180;5.812;2023-04-03T06:43:39;1.80;99.90
52849;DHT22;38714;53.180;5.812;2023-04-03T06:46:05;1.80;99.90
52849;DHT22;38714;53.180;5.812;2023-04-03T06:48:31;1.90;99.90
52849;DHT22;38714;53.180;5.812;2023-04-03T06:50:57;1.90;99.90
52849;DHT22;38714;53.180;5.812;2023-04-03T06:53:23;2.00;99.90
52849;DHT22;38714;53.180;5.812;2023-04-03T06:55:49;2.00;99.90
52849;DHT22;38714;53.180;5.812;2023-04-03T06:58:15;2.00;99.90
52849;DHT22;38714;53.180;5.812;2023-04-03T07:00:42;2.10;99.90
52849;DHT22;38714;53.180;5.812;2023-04-03T07:03:08;2.10;99.90
52849;DHT22;38714;53.180;5.812;2023-04-03T07:05:33;2.20;99.90
52849;DHT22;38714;53.180;5.812;2023-04-03T07:07:59;2.20;99.90
52849;DHT22;38714;53.180;5.812;2023-04-03T07:10:25;2.20;99.90
52849;DHT22;38714;53.180;5.812;2023-04-03T07:12:50;2.20;99.90
52849;DHT22;38714;53.180;5.812;2023-04-03T07:15:16;2.20;99.90
52849;DHT22;38714;53.180;5.812;2023-04-03T07:17:42;2.30;99.90
52849;DHT22;38714;53.180;5.812;2023-04-03T07:20:08;2.30;99.90
52849;DHT22;38714;53.180;5.812;2023-04-03T07:22:34;2.30;99.90
52849;DHT22;38714;53.180;5.812;2023-04-03T07:24:59;2.40;99.90
52849;DHT22;38714;53.180;5.812;2023-04-03T07:27:25;2.40;99.90
52849;DHT22;38714;53.180;5.812;2023-04-03T07:29:51;2.50;99.90
52849;DHT22;38714;53.180;5.812;2023-04-03T07:32:17;2.50;99.90
52849;DHT22;38714;53.180;5.812;2023-04-03T07:34:43;2.50;99.90
52849;DHT22;38714;53.180;5.812;2023-04-03T07:37:09;2.50;99.90
52849;DHT22;38714;53.180;5.812;2023-04-03T07:39:35;2.60;99.90
52849;DHT22;38714;53.180;5.812;2023-04-03T07:42:01;2.60;99.90
52849;DHT22;38714;53.180;5.812;2023-04-03T07:44:28;2.70;99.90
52849;DHT22;38714;53.180;5.812;2023-04-03T07:46:53;2.60;99.90
52849;DHT22;38714;53.180;5.812;2023-04-03T07:49:20;2.70;99.90
52849;DHT22;38714;53.180;5.812;2023-04-03T07:51:48;2.70;99.90
52849;DHT22;38714;53.180;5.812;2023-04-03T07:54:14;2.70;99.90
52849;DHT22;38714;53.180;5.812;2023-04-03T07:56:40;2.80;99.90
52849;DHT22;38714;53.180;5.812;2023-04-03T07:59:08;2.80;99.90
52849;DHT22;38714;53.180;5.812;2023-04-03T08:01:33;2.90;99.90
52849;DHT22;38714;53.180;5.812;2023-04-03T08:03:59;2.90;99.90
52849;DHT22;38714;53.180;5.812;2023-04-03T08:06:25;3.00;99.90
52849;DHT22;38714;53.180;5.812;2023-04-03T08:08:51;3.00;99.90
52849;DHT22;38714;53.180;5.812;2023-04-03T08:11:17;3.00;99.90
52849;DHT22;38714;53.180;5.812;2023-04-03T08:13:44;3.10;99.90
52849;DHT22;38714;53.180;5.812;2023-04-03T08:16:17;3.10;99.90
52849;DHT22;38714;53.180;5.812;2023-04-03T08:18:43;3.20;99.90
52849;DHT22;38714;53.180;5.812;2023-04-03T08:21:10;3.20;99.90
52849;DHT22;38714;53.180;5.812;2023-04-03T08:23:37;3.20;99.90
52849;DHT22;38714;53.180;5.812;2023-04-03T08:26:11;3.30;99.90
52849;DHT22;38714;53.180;5.812;2023-04-03T08:28:38;3.30;99.90
52849;DHT22;38714;53.180;5.812;2023-04-03T08:31:10;3.30;99.90
52849;DHT22;38714;53.180;5.812;2023-04-03T08:33:37;3.40;99.90
52849;DHT22;38714;53.180;5.812;2023-04-03T08:36:04;3.50;99.90
52849;DHT22;38714;53.180;5.812;2023-04-03T08:38:31;3.50;99.90
52849;DHT22;38714;53.180;5.812;2023-04-03T08:46:14;3.60;99.90
52849;DHT22;38714;53.180;5.812;2023-04-03T08:48:43;3.60;99.90
52849;DHT22;38714;53.180;5.812;2023-04-03T08:51:20;3.70;99.90
52849;DHT22;38714;53.180;5.812;2023-04-03T08:54:06;3.70;99.90
52849;DHT22;38714;53.180;5.812;2023-04-03T08:56:36;3.80;99.90
52849;DHT22;38714;53.180;5.812;2023-04-03T08:59:06;3.80;99.90
52849;DHT22;38714;53.180;5.812;2023-04-03T09:01:36;3.80;99.90
52849;DHT22;38714;53.180;5.812;2023-04-03T09:04:13;3.90;99.90
52849;DHT22;38714;53.180;5.812;2023-04-03T09:06:39;4.00;99.90
52849;DHT22;38714;53.180;5.812;2023-04-03T09:09:22;4.00;99.90
52849;DHT22;38714;53.180;5.812;2023-04-03T09:14:46;4.10;99.90
52849;DHT22;38714;53.180;5.812;2023-04-03T09:22:32;4.20;99.90
52849;DHT22;38714;53.180;5.812;2023-04-03T09:25:17;4.30;99.90
52849;DHT22;38714;53.180;5.812;2023-04-03T09:27:44;4.30;99.90
52849;DHT22;38714;53.180;5.812;2023-04-03T09:30:14;4.30;99.90
52849;DHT22;38714;53.180;5.812;2023-04-03T09:32:40;4.40;99.90
52849;DHT22;38714;53.180;5.812;2023-04-03T09:37:45;4.50;99.90
52849;DHT22;38714;53.180;5.812;2023-04-03T09:40:28;4.50;99.90
52849;DHT22;38714;53.180;5.812;2023-04-03T09:45:42;4.50;99.90
52849;DHT22;38714;53.180;5.812;2023-04-03T09:50:53;4.70;99.90
52849;DHT22;38714;53.180;5.812;2023-04-03T09:56:00;4.70;99.90
52849;DHT22;38714;53.180;5.812;2023-04-03T09:58:35;4.80;99.90
52849;DHT22;38714;53.180;5.812;2023-04-03T10:01:03;4.80;99.90
52849;DHT22;38714;53.180;5.812;2023-04-03T10:03:36;4.80;99.90
52849;DHT22;38714;53.180;5.812;2023-04-03T10:06:24;4.90;99.90
52849;DHT22;38714;53.180;5.812;2023-04-03T10:09:02;4.90;99.90
52849;DHT22;38714;53.180;5.812;2023-04-03T10:11:30;4.90;99.90
52849;DHT22;38714;53.180;5.812;2023-04-03T10:14:00;5.00;99.90
52849;DHT22;38714;53.180;5.812;2023-04-03T10:16:34;5.10;99.90
52849;DHT22;38714;53.180;5.812;2023-04-03T10:22:00;5.10;99.90
52849;DHT22;38714;53.180;5.812;2023-04-03T10:24:54;5.20;99.90
52849;DHT22;38714;53.180;5.812;2023-04-03T10:27:47;5.20;99.90
52849;DHT22;38714;53.180;5.812;2023-04-03T10:30:31;5.30;99.90
52849;DHT22;38714;53.180;5.812;2023-04-03T10:33:11;5.40;99.90
52849;DHT22;38714;53.180;5.812;2023-04-03T10:38:54;5.40;99.90
52849;DHT22;38714;53.180;5.812;2023-04-03T10:52:52;5.70;99.90
52849;DHT22;38714;53.180;5.812;2023-04-03T10:58:01;5.70;99.90
52849;DHT22;38714;53.180;5.812;2023-04-03T11:00:43;5.70;99.90
52849;DHT22;38714;53.180;5.812;2023-04-03T11:05:53;5.90;99.90
52849;DHT22;38714;53.180;5.812;2023-04-03T11:08:33;5.90;99.90
52849;DHT22;38714;53.180;5.812;2023-04-03T11:16:45;6.00;99.90
52849;DHT22;38714;53.180;5.812;2023-04-03T11:19:18;6.00;99.90
52849;DHT22;38714;53.180;5.812;2023-04-03T11:21:57;6.10;99.90
52849;DHT22;38714;53.180;5.812;2023-04-03T11:24:31;6.10;99.90
52849;DHT22;38714;53.180;5.812;2023-04-03T11:26:59;6.10;99.90
52849;DHT22;38714;53.180;5.812;2023-04-03T11:29:31;6.20;99.90
52849;DHT22;38714;53.180;5.812;2023-04-03T11:34:55;6.20;99.90
52849;DHT22;38714;53.180;5.812;2023-04-03T11:37:38;6.20;99.90
52849;DHT22;38714;53.180;5.812;2023-04-03T11:40:19;6.30;99.90
52849;DHT22;38714;53.180;5.812;2023-04-03T11:42:53;6.30;99.90
52849;DHT22;38714;53.180;5.812;2023-04-03T11:47:55;6.40;99.90
52849;DHT22;38714;53.180;5.812;2023-04-03T12:01:02;6.50;99.90
52849;DHT22;38714;53.180;5.812;2023-04-03T12:14:00;6.70;99.90
52849;DHT22;38714;53.180;5.812;2023-04-03T12:24:30;6.70;99.90
52849;DHT22;38714;53.180;5.812;2023-04-03T12:29:33;6.80;99.90
52849;DHT22;38714;53.180;5.812;2023-04-03T12:35:12;6.90;99.90
52849;DHT22;38714;53.180;5.812;2023-04-03T12:40:50;6.90;99.90
52849;DHT22;38714;53.180;5.812;2023-04-03T12:43:39;6.90;99.90
52849;DHT22;38714;53.180;5.812;2023-04-03T12:48:55;6.90;99.90
52849;DHT22;38714;53.180;5.812;2023-04-03T12:51:34;7.00;99.90
52849;DHT22;38714;53.180;5.812;2023-04-03T12:54:19;7.00;99.90
52849;DHT22;38714;53.180;5.812;2023-04-03T12:56:47;7.00;99.90
52849;DHT22;38714;53.180;5.812;2023-04-03T13:01:38;7.00;99.90
52849;DHT22;38714;53.180;5.812;2023-04-03T13:04:04;7.00;99.90
52849;DHT22;38714;53.180;5.812;2023-04-03T13:06:41;7.00;99.90
52849;DHT22;38714;53.180;5.812;2023-04-03T13:09:29;7.00;99.90
52849;DHT22;38714;53.180;5.812;2023-04-03T13:12:00;7.00;99.90
52849;DHT22;38714;53.180;5.812;2023-04-03T13:14:27;7.10;99.90
52849;DHT22;38714;53.180;5.812;2023-04-03T13:16:59;7.10;99.90
52849;DHT22;38714;53.180;5.812;2023-04-03T13:19:27;7.10;99.90
52849;DHT22;38714;53.180;5.812;2023-04-03T13:22:05;7.20;99.90
52849;DHT22;38714;53.180;5.812;2023-04-03T13:24:34;7.20;99.90
52849;DHT22;38714;53.180;5.812;2023-04-03T13:27:01;7.20;99.90
52849;DHT22;38714;53.180;5.812;2023-04-03T13:29:30;7.20;99.90
52849;DHT22;38714;53.180;5.812;2023-04-03T13:31:56;7.20;99.90
52849;DHT22;38714;53.180;5.812;2023-04-03T13:34:25;7.20;99.90
52849;DHT22;38714;53.180;5.812;2023-04-03T13:41:59;7.20;99.90
52849;DHT22;38714;53.180;5.812;2023-04-03T13:44:31;7.20;99.90
52849;DHT22;38714;53.180;5.812;2023-04-03T13:47:18;7.20;99.90
52849;DHT22;38714;53.180;5.812;2023-04-03T13:49:59;7.20;99.90
52849;DHT22;38714;53.180;5.812;2023-04-03T13:52:27;7.20;99.90
52849;DHT22;38714;53.180;5.812;2023-04-03T13:55:23;7.30;99.90
52849;DHT22;38714;53.180;5.812;2023-04-03T13:57:55;7.30;99.90
52849;DHT22;38714;53.180;5.812;2023-04-03T14:00:38;7.30;99.90
52849;DHT22;38714;53.180;5.812;2023-04-03T14:03:39;7.30;99.90
52849;DHT22;38714;53.180;5.812;2023-04-03T14:05:59;7.40;99.90
52849;DHT22;38714;53.180;5.812;2023-04-03T14:08:26;7.40;99.90
52849;DHT22;38714;53.180;5.812;2023-04-03T14:10:53;7.40;99.90
52849;DHT22;38714;53.180;5.812;2023-04-03T14:13:19;7.40;99.90
52849;DHT22;38714;53.180;5.812;2023-04-03T14:15:47;7.40;99.90
52849;DHT22;38714;53.180;5.812;2023-04-03T14:18:16;7.40;99.90
52849;DHT22;38714;53.180;5.812;2023-04-03T14:20:43;7.50;99.90
52849;DHT22;38714;53.180;5.812;2023-04-03T14:23:09;7.50;99.90
52849;DHT22;38714;53.180;5.812;2023-04-03T14:25:36;7.50;99.90
52849;DHT22;38714;53.180;5.812;2023-04-03T14:28:14;7.50;99.90
52849;DHT22;38714;53.180;5.812;2023-04-03T14:30:41;7.50;99.90
52849;DHT22;38714;53.180;5.812;2023-04-03T14:33:06;7.50;99.90
52849;DHT22;38714;53.180;5.812;2023-04-03T14:35:34;7.50;99.90
52849;DHT22;38714;53.180;5.812;2023-04-03T14:38:00;7.50;99.90
52849;DHT22;38714;53.180;5.812;2023-04-03T14:40:27;7.50;99.90
52849;DHT22;38714;53.180;5.812;2023-04-03T14:42:53;7.50;99.90
52849;DHT22;38714;53.180;5.812;2023-04-03T14:45:21;7.50;99.90
52849;DHT22;38714;53.180;5.812;2023-04-03T14:47:56;7.60;99.90
52849;DHT22;38714;53.180;5.812;2023-04-03T14:50:24;7.60;99.90
52849;DHT22;38714;53.180;5.812;2023-04-03T14:52:53;7.60;99.90
52849;DHT22;38714;53.180;5.812;2023-04-03T14:55:21;7.60;99.90
52849;DHT22;38714;53.180;5.812;2023-04-03T14:57:47;7.60;99.90
52849;DHT22;38714;53.180;5.812;2023-04-03T15:00:18;7.60;99.90
52849;DHT22;38714;53.180;5.812;2023-04-03T15:02:44;7.60;99.90
52849;DHT22;38714;53.180;5.812;2023-04-03T15:05:11;7.60;99.90
52849;DHT22;38714;53.180;5.812;2023-04-03T15:07:39;7.70;99.90
52849;DHT22;38714;53.180;5.812;2023-04-03T15:10:22;7.60;99.90
52849;DHT22;38714;53.180;5.812;2023-04-03T15:12:49;7.70;99.90
52849;DHT22;38714;53.180;5.812;2023-04-03T15:15:17;7.70;99.90
52849;DHT22;38714;53.180;5.812;2023-04-03T15:17:44;7.70;99.90
52849;DHT22;38714;53.180;5.812;2023-04-03T15:20:15;7.70;99.90
52849;DHT22;38714;53.180;5.812;2023-04-03T15:22:42;7.70;99.90
52849;DHT22;38714;53.180;5.812;2023-04-03T15:25:08;7.70;99.90
52849;DHT22;38714;53.180;5.812;2023-04-03T15:27:34;7.70;99.90
52849;DHT22;38714;53.180;5.812;2023-04-03T15:30:00;7.70;99.90
52849;DHT22;38714;53.180;5.812;2023-04-03T15:32:25;7.70;99.90
52849;DHT22;38714;53.180;5.812;2023-04-03T15:34:51;7.70;99.90
52849;DHT22;38714;53.180;5.812;2023-04-03T15:37:16;7.70;99.90
52849;DHT22;38714;53.180;5.812;2023-04-03T15:39:42;7.70;99.90
52849;DHT22;38714;53.180;5.812;2023-04-03T15:42:08;7.70;99.90
52849;DHT22;38714;53.180;5.812;2023-04-03T15:44:34;7.60;99.90
52849;DHT22;38714;53.180;5.812;2023-04-03T15:47:00;7.70;99.90
52849;DHT22;38714;53.180;5.812;2023-04-03T15:49:27;7.60;99.90
52849;DHT22;38714;53.180;5.812;2023-04-03T15:51:53;7.60;99.90
52849;DHT22;38714;53.180;5.812;2023-04-03T15:54:18;7.60;99.90
52849;DHT22;38714;53.180;5.812;2023-04-03T15:56:45;7.60;99.90
52849;DHT22;38714;53.180;5.812;2023-04-03T15:59:10;7.60;99.90
52849;DHT22;38714;53.180;5.812;2023-04-03T16:01:37;7.60;99.90
52849;DHT22;38714;53.180;5.812;2023-04-03T16:04:05;7.50;99.90
52849;DHT22;38714;53.180;5.812;2023-04-03T16:06:32;7.60;99.90
52849;DHT22;38714;53.180;5.812;2023-04-03T16:08:59;7.50;99.90
52849;DHT22;38714;53.180;5.812;2023-04-03T16:11:26;7.60;99.90
52849;DHT22;38714;53.180;5.812;2023-04-03T16:13:53;7.50;99.90
52849;DHT22;38714;53.180;5.812;2023-04-03T16:16:19;7.60;99.90
52849;DHT22;38714;53.180;5.812;2023-04-03T16:18:46;7.50;99.90
52849;DHT22;38714;53.180;5.812;2023-04-03T16:21:15;7.50;99.90
52849;DHT22;38714;53.180;5.812;2023-04-03T16:23:41;7.50;99.90
52849;DHT22;38714;53.180;5.812;2023-04-03T16:26:09;7.50;99.90
52849;DHT22;38714;53.180;5.812;2023-04-03T16:28:34;7.50;99.90
52849;DHT22;38714;53.180;5.812;2023-04-03T16:31:01;7.50;99.90
52849;DHT22;38714;53.180;5.812;2023-04-03T16:33:27;7.50;99.90
52849;DHT22;38714;53.180;5.812;2023-04-03T16:35:53;7.50;99.90
52849;DHT22;38714;53.180;5.812;2023-04-03T16:38:19;7.50;99.90
52849;DHT22;38714;53.180;5.812;2023-04-03T16:40:48;7.50;99.90
52849;DHT22;38714;53.180;5.812;2023-04-03T16:43:15;7.50;99.90
52849;DHT22;38714;53.180;5.812;2023-04-03T16:45:41;7.50;99.90
52849;DHT22;38714;53.180;5.812;2023-04-03T16:48:07;7.50;99.90
52849;DHT22;38714;53.180;5.812;2023-04-03T16:50:33;7.40;99.90
52849;DHT22;38714;53.180;5.812;2023-04-03T16:52:59;7.40;99.90
52849;DHT22;38714;53.180;5.812;2023-04-03T16:55:24;7.40;99.90
52849;DHT22;38714;53.180;5.812;2023-04-03T16:57:50;7.40;99.90
52849;DHT22;38714;53.180;5.812;2023-04-03T17:00:16;7.40;99.90
52849;DHT22;38714;53.180;5.812;2023-04-03T17:02:41;7.40;99.90
52849;DHT22;38714;53.180;5.812;2023-04-03T17:05:07;7.30;99.90
52849;DHT22;38714;53.180;5.812;2023-04-03T17:07:33;7.30;99.90
52849;DHT22;38714;53.180;5.812;2023-04-03T17:09:59;7.30;99.90
52849;DHT22;38714;53.180;5.812;2023-04-03T17:12:25;7.20;99.90
52849;DHT22;38714;53.180;5.812;2023-04-03T17:14:50;7.20;99.90
52849;DHT22;38714;53.180;5.812;2023-04-03T17:17:20;7.20;99.90
52849;DHT22;38714;53.180;5.812;2023-04-03T17:19:46;7.10;99.90
52849;DHT22;38714;53.180;5.812;2023-04-03T17:22:12;7.10;99.90
52849;DHT22;38714;53.180;5.812;2023-04-03T17:24:38;7.10;99.90
52849;DHT22;38714;53.180;5.812;2023-04-03T17:27:04;7.10;99.90
52849;DHT22;38714;53.180;5.812;2023-04-03T17:29:29;7.00;99.90
52849;DHT22;38714;53.180;5.812;2023-04-03T17:31:55;7.00;99.90
52849;DHT22;38714;53.180;5.812;2023-04-03T17:34:21;6.90;99.90
52849;DHT22;38714;53.180;5.812;2023-04-03T17:36:47;6.90;99.90
52849;DHT22;38714;53.180;5.812;2023-04-03T17:39:13;6.80;99.90
52849;DHT22;38714;53.180;5.812;2023-04-03T17:41:38;6.80;99.90
52849;DHT22;38714;53.180;5.812;2023-04-03T17:44:04;6.70;99.90